sensor_id;sensor_type;location;lat;lon;timestamp;P1;durP1;ratioP1;P2;durP2;ratioP2
42296;SDS011;28985;47.456;19.016;2022-08-04T00:04:54;6.32;;;5.93;;
42296;SDS011;28985;47.456;19.016;2022-08-04T00:07:30;5.82;;;5.40;;
42296;SDS011;28985;47.456;19.016;2022-08-04T00:10:15;6.47;;;5.70;;
42296;SDS011;28985;47.456;19.016;2022-08-04T00:12:46;6.18;;;5.15;;
42296;SDS011;28985;47.456;19.016;2022-08-04T00:15:15;5.68;;;5.28;;
42296;SDS011;28985;47.456;19.016;2022-08-04T00:17:59;5.40;;;5.00;;
42296;SDS011;28985;47.456;19.016;2022-08-04T00:20:31;5.35;;;4.95;;
42296;SDS011;28985;47.456;19.016;2022-08-04T00:22:59;5.22;;;4.82;;
42296;SDS011;28985;47.456;19.016;2022-08-04T00:25:27;5.22;;;4.82;;
42296;SDS011;28985;47.456;19.016;2022-08-04T00:27:54;5.38;;;4.97;;
42296;SDS011;28985;47.456;19.016;2022-08-04T00:30:21;5.10;;;4.75;;
42296;SDS011;28985;47.456;19.016;2022-08-04T00:32:48;7.32;;;4.57;;
42296;SDS011;28985;47.456;19.016;2022-08-04T00:35:15;5.45;;;5.05;;
42296;SDS011;28985;47.456;19.016;2022-08-04T00:37:43;5.22;;;4.65;;
42296;SDS011;28985;47.456;19.016;2022-08-04T00:42:45;5.35;;;4.95;;
42296;SDS011;28985;47.456;19.016;2022-08-04T00:54:05;5.40;;;4.97;;
42296;SDS011;28985;47.456;19.016;2022-08-04T00:56:56;5.20;;;4.80;;
42296;SDS011;28985;47.456;19.016;2022-08-04T01:08:08;5.32;;;4.75;;
42296;SDS011;28985;47.456;19.016;2022-08-04T01:10:58;5.78;;;5.25;;
42296;SDS011;28985;47.456;19.016;2022-08-04T01:16:26;5.97;;;5.15;;
42296;SDS011;28985;47.456;19.016;2022-08-04T01:24:49;4.45;;;4.05;;
42296;SDS011;28985;47.456;19.016;2022-08-04T01:30:31;5.43;;;5.03;;
42296;SDS011;28985;47.456;19.016;2022-08-04T01:33:01;5.30;;;4.68;;
42296;SDS011;28985;47.456;19.016;2022-08-04T01:35:42;4.90;;;4.43;;
42296;SDS011;28985;47.456;19.016;2022-08-04T01:38:18;5.13;;;4.63;;
42296;SDS011;28985;47.456;19.016;2022-08-04T01:40:51;5.85;;;5.13;;
42296;SDS011;28985;47.456;19.016;2022-08-04T01:43:22;4.82;;;4.43;;
42296;SDS011;28985;47.456;19.016;2022-08-04T01:45:50;4.45;;;4.05;;
42296;SDS011;28985;47.456;19.016;2022-08-04T01:48:23;5.15;;;4.65;;
42296;SDS011;28985;47.456;19.016;2022-08-04T01:50:52;4.55;;;4.13;;
42296;SDS011;28985;47.456;19.016;2022-08-04T01:53:19;5.97;;;4.82;;
42296;SDS011;28985;47.456;19.016;2022-08-04T01:55:51;8.55;;;4.80;;
42296;SDS011;28985;47.456;19.016;2022-08-04T02:00:59;4.05;;;3.67;;
42296;SDS011;28985;47.456;19.016;2022-08-04T02:03:35;4.28;;;3.88;;
42296;SDS011;28985;47.456;19.016;2022-08-04T02:09:34;7.15;;;3.92;;
42296;SDS011;28985;47.456;19.016;2022-08-04T02:12:23;6.05;;;3.92;;
42296;SDS011;28985;47.456;19.016;2022-08-04T02:20:23;3.75;;;3.50;;
42296;SDS011;28985;47.456;19.016;2022-08-04T02:23:28;3.80;;;3.45;;
42296;SDS011;28985;47.456;19.016;2022-08-04T02:26:18;4.13;;;3.72;;
42296;SDS011;28985;47.456;19.016;2022-08-04T02:31:34;9.73;;;5.00;;
42296;SDS011;28985;47.456;19.016;2022-08-04T02:36:39;5.32;;;3.45;;
42296;SDS011;28985;47.456;19.016;2022-08-04T02:39:07;3.50;;;3.20;;
42296;SDS011;28985;47.456;19.016;2022-08-04T02:41:35;11.38;;;5.05;;
42296;SDS011;28985;47.456;19.016;2022-08-04T02:44:07;24.88;;;8.43;;
42296;SDS011;28985;47.456;19.016;2022-08-04T02:46:35;29.98;;;9.20;;
42296;SDS011;28985;47.456;19.016;2022-08-04T02:49:05;12.00;;;5.15;;
42296;SDS011;28985;47.456;19.016;2022-08-04T02:51:33;10.88;;;4.38;;
42296;SDS011;28985;47.456;19.016;2022-08-04T02:54:03;33.70;;;10.02;;
42296;SDS011;28985;47.456;19.016;2022-08-04T02:56:32;13.23;;;4.88;;
42296;SDS011;28985;47.456;19.016;2022-08-04T02:59:05;9.25;;;4.10;;
42296;SDS011;28985;47.456;19.016;2022-08-04T03:01:33;4.50;;;3.35;;
42296;SDS011;28985;47.456;19.016;2022-08-04T03:04:21;5.82;;;3.60;;
42296;SDS011;28985;47.456;19.016;2022-08-04T03:38:28;6.35;;;3.15;;
42296;SDS011;28985;47.456;19.016;2022-08-04T03:46:50;7.93;;;3.90;;
42296;SDS011;28985;47.456;19.016;2022-08-04T03:52:06;4.80;;;3.22;;
42296;SDS011;28985;47.456;19.016;2022-08-04T03:57:54;9.07;;;4.45;;
42296;SDS011;28985;47.456;19.016;2022-08-04T04:01:17;9.68;;;3.63;;
42296;SDS011;28985;47.456;19.016;2022-08-04T04:15:30;5.00;;;3.85;;
42296;SDS011;28985;47.456;19.016;2022-08-04T04:24:24;3.97;;;3.67;;
42296;SDS011;28985;47.456;19.016;2022-08-04T04:27:15;4.22;;;3.53;;
42296;SDS011;28985;47.456;19.016;2022-08-04T04:32:51;4.20;;;3.90;;
42296;SDS011;28985;47.456;19.016;2022-08-04T04:36:09;4.18;;;3.97;;
42296;SDS011;28985;47.456;19.016;2022-08-04T04:49:33;4.50;;;4.30;;
42296;SDS011;28985;47.456;19.016;2022-08-04T04:52:17;5.00;;;4.70;;
42296;SDS011;28985;47.456;19.016;2022-08-04T04:55:38;4.78;;;4.43;;
42296;SDS011;28985;47.456;19.016;2022-08-04T04:57:47;5.88;;;5.38;;
42296;SDS011;28985;47.456;19.016;2022-08-04T05:00:20;4.90;;;4.40;;
42296;SDS011;28985;47.456;19.016;2022-08-04T05:05:36;3.50;;;3.20;;
42296;SDS011;28985;47.456;19.016;2022-08-04T05:11:24;3.55;;;3.35;;
42296;SDS011;28985;47.456;19.016;2022-08-04T05:13:57;3.72;;;3.40;;
42296;SDS011;28985;47.456;19.016;2022-08-04T05:17:05;3.63;;;3.35;;
42296;SDS011;28985;47.456;19.016;2022-08-04T05:19:43;4.78;;;3.75;;
42296;SDS011;28985;47.456;19.016;2022-08-04T05:22:31;3.70;;;3.42;;
42296;SDS011;28985;47.456;19.016;2022-08-04T05:25:08;5.47;;;4.18;;
42296;SDS011;28985;47.456;19.016;2022-08-04T05:27:44;5.20;;;4.00;;
42296;SDS011;28985;47.456;19.016;2022-08-04T05:30:23;5.07;;;4.72;;
42296;SDS011;28985;47.456;19.016;2022-08-04T05:32:54;4.97;;;4.32;;
42296;SDS011;28985;47.456;19.016;2022-08-04T05:35:30;6.55;;;4.90;;
42296;SDS011;28985;47.456;19.016;2022-08-04T05:38:21;5.50;;;5.07;;
42296;SDS011;28985;47.456;19.016;2022-08-04T05:40:50;7.30;;;5.70;;
42296;SDS011;28985;47.456;19.016;2022-08-04T05:43:19;5.97;;;5.60;;
42296;SDS011;28985;47.456;19.016;2022-08-04T05:45:47;6.50;;;5.93;;
42296;SDS011;28985;47.456;19.016;2022-08-04T05:48:16;7.07;;;6.72;;
42296;SDS011;28985;47.456;19.016;2022-08-04T05:50:44;6.50;;;5.85;;
42296;SDS011;28985;47.456;19.016;2022-08-04T05:53:12;6.28;;;5.93;;
42296;SDS011;28985;47.456;19.016;2022-08-04T05:55:41;5.90;;;5.60;;
42296;SDS011;28985;47.456;19.016;2022-08-04T05:58:24;7.47;;;6.18;;
42296;SDS011;28985;47.456;19.016;2022-08-04T06:00:54;7.30;;;6.70;;
42296;SDS011;28985;47.456;19.016;2022-08-04T06:03:24;7.15;;;6.70;;
42296;SDS011;28985;47.456;19.016;2022-08-04T06:05:54;7.72;;;7.10;;
42296;SDS011;28985;47.456;19.016;2022-08-04T06:08:22;8.48;;;8.05;;
42296;SDS011;28985;47.456;19.016;2022-08-04T06:10:50;7.88;;;7.28;;
42296;SDS011;28985;47.456;19.016;2022-08-04T06:13:19;8.13;;;7.70;;
42296;SDS011;28985;47.456;19.016;2022-08-04T06:16:14;8.80;;;8.15;;
42296;SDS011;28985;47.456;19.016;2022-08-04T06:18:56;9.23;;;8.50;;
42296;SDS011;28985;47.456;19.016;2022-08-04T06:21:46;8.20;;;7.82;;
42296;SDS011;28985;47.456;19.016;2022-08-04T06:24:16;10.60;;;10.10;;
42296;SDS011;28985;47.456;19.016;2022-08-04T06:26:46;11.48;;;10.77;;
42296;SDS011;28985;47.456;19.016;2022-08-04T06:29:16;13.02;;;12.43;;
42296;SDS011;28985;47.456;19.016;2022-08-04T06:31:52;12.05;;;11.45;;
42296;SDS011;28985;47.456;19.016;2022-08-04T06:34:47;12.00;;;11.40;;
42296;SDS011;28985;47.456;19.016;2022-08-04T06:37:16;13.68;;;12.98;;
42296;SDS011;28985;47.456;19.016;2022-08-04T06:40:04;16.20;;;15.10;;
42296;SDS011;28985;47.456;19.016;2022-08-04T06:42:53;16.40;;;15.48;;
42296;SDS011;28985;47.456;19.016;2022-08-04T06:45:21;18.02;;;17.33;;
42296;SDS011;28985;47.456;19.016;2022-08-04T06:47:49;20.73;;;19.83;;
42296;SDS011;28985;47.456;19.016;2022-08-04T06:50:16;19.30;;;18.50;;
42296;SDS011;28985;47.456;19.016;2022-08-04T06:53:04;23.75;;;22.65;;
42296;SDS011;28985;47.456;19.016;2022-08-04T06:55:32;23.98;;;22.88;;
42296;SDS011;28985;47.456;19.016;2022-08-04T06:58:00;29.00;;;27.80;;
42296;SDS011;28985;47.456;19.016;2022-08-04T07:00:29;31.20;;;29.10;;
42296;SDS011;28985;47.456;19.016;2022-08-04T07:02:57;31.75;;;29.88;;
42296;SDS011;28985;47.456;19.016;2022-08-04T07:05:26;27.65;;;26.45;;
42296;SDS011;28985;47.456;19.016;2022-08-04T07:07:53;25.20;;;24.20;;
42296;SDS011;28985;47.456;19.016;2022-08-04T07:10:23;26.42;;;25.10;;
42296;SDS011;28985;47.456;19.016;2022-08-04T07:12:53;29.08;;;27.88;;
42296;SDS011;28985;47.456;19.016;2022-08-04T07:15:21;24.70;;;23.70;;
42296;SDS011;28985;47.456;19.016;2022-08-04T07:17:48;26.30;;;25.20;;
42296;SDS011;28985;47.456;19.016;2022-08-04T07:20:17;29.23;;;27.92;;
42296;SDS011;28985;47.456;19.016;2022-08-04T07:23:01;24.77;;;23.55;;
42296;SDS011;28985;47.456;19.016;2022-08-04T07:25:29;29.23;;;28.20;;
42296;SDS011;28985;47.456;19.016;2022-08-04T07:28:16;27.70;;;26.17;;
42296;SDS011;28985;47.456;19.016;2022-08-04T07:30:43;31.50;;;30.30;;
42296;SDS011;28985;47.456;19.016;2022-08-04T07:33:10;25.35;;;24.35;;
42296;SDS011;28985;47.456;19.016;2022-08-04T07:35:37;28.77;;;27.33;;
42296;SDS011;28985;47.456;19.016;2022-08-04T07:38:24;32.90;;;31.48;;
42296;SDS011;28985;47.456;19.016;2022-08-04T07:40:53;32.50;;;31.10;;
42296;SDS011;28985;47.456;19.016;2022-08-04T07:43:20;35.90;;;34.10;;
42296;SDS011;28985;47.456;19.016;2022-08-04T07:45:48;37.25;;;35.80;;
42296;SDS011;28985;47.456;19.016;2022-08-04T07:48:15;40.85;;;39.30;;
42296;SDS011;28985;47.456;19.016;2022-08-04T07:50:44;44.63;;;42.72;;
42296;SDS011;28985;47.456;19.016;2022-08-04T07:53:12;45.78;;;44.03;;
42296;SDS011;28985;47.456;19.016;2022-08-04T07:56:00;43.60;;;41.90;;
42296;SDS011;28985;47.456;19.016;2022-08-04T07:58:27;54.55;;;52.25;;
42296;SDS011;28985;47.456;19.016;2022-08-04T08:00:55;56.88;;;54.70;;
42296;SDS011;28985;47.456;19.016;2022-08-04T08:03:23;59.65;;;57.25;;
42296;SDS011;28985;47.456;19.016;2022-08-04T08:05:52;63.05;;;60.45;;
42296;SDS011;28985;47.456;19.016;2022-08-04T08:08:39;65.93;;;63.38;;
42296;SDS011;28985;47.456;19.016;2022-08-04T08:11:06;60.58;;;58.22;;
42296;SDS011;28985;47.456;19.016;2022-08-04T08:13:35;68.55;;;65.82;;
42296;SDS011;28985;47.456;19.016;2022-08-04T08:16:02;75.35;;;72.38;;
42296;SDS011;28985;47.456;19.016;2022-08-04T08:18:30;74.85;;;71.95;;
42296;SDS011;28985;47.456;19.016;2022-08-04T08:20:57;69.38;;;66.57;;
42296;SDS011;28985;47.456;19.016;2022-08-04T08:23:24;69.43;;;66.70;;
42296;SDS011;28985;47.456;19.016;2022-08-04T08:25:52;102.82;;;98.80;;
42296;SDS011;28985;47.456;19.016;2022-08-04T08:28:19;76.50;;;73.53;;
42296;SDS011;28985;47.456;19.016;2022-08-04T08:30:46;103.53;;;99.45;;
42296;SDS011;28985;47.456;19.016;2022-08-04T08:33:18;95.97;;;92.18;;
42296;SDS011;28985;47.456;19.016;2022-08-04T08:38:23;77.55;;;74.07;;
42296;SDS011;28985;47.456;19.016;2022-08-04T08:53:20;81.90;;;78.80;;
42296;SDS011;28985;47.456;19.016;2022-08-04T09:04:37;110.50;;;106.30;;
42296;SDS011;28985;47.456;19.016;2022-08-04T09:15:32;131.32;;;126.28;;
42296;SDS011;28985;47.456;19.016;2022-08-04T09:18:24;139.95;;;134.63;;
42296;SDS011;28985;47.456;19.016;2022-08-04T09:24:02;169.25;;;162.25;;
42296;SDS011;28985;47.456;19.016;2022-08-04T09:29:36;151.23;;;145.43;;
42296;SDS011;28985;47.456;19.016;2022-08-04T09:32:13;177.60;;;170.75;;
42296;SDS011;28985;47.456;19.016;2022-08-04T09:38:09;154.90;;;148.80;;
42296;SDS011;28985;47.456;19.016;2022-08-04T09:43:26;156.82;;;150.60;;
42296;SDS011;28985;47.456;19.016;2022-08-04T09:46:22;139.65;;;134.35;;
42296;SDS011;28985;47.456;19.016;2022-08-04T09:49:02;141.38;;;135.88;;
42296;SDS011;28985;47.456;19.016;2022-08-04T10:02:38;126.10;;;121.22;;
42296;SDS011;28985;47.456;19.016;2022-08-04T10:05:13;140.68;;;135.23;;
42296;SDS011;28985;47.456;19.016;2022-08-04T10:16:34;147.32;;;141.48;;
42296;SDS011;28985;47.456;19.016;2022-08-04T10:22:14;143.60;;;137.93;;
42296;SDS011;28985;47.456;19.016;2022-08-04T10:25:29;154.48;;;148.65;;
42296;SDS011;28985;47.456;19.016;2022-08-04T10:28:34;158.48;;;152.38;;
42296;SDS011;28985;47.456;19.016;2022-08-04T10:31:12;160.50;;;154.38;;
42296;SDS011;28985;47.456;19.016;2022-08-04T10:33:50;160.68;;;154.38;;
42296;SDS011;28985;47.456;19.016;2022-08-04T10:36:25;175.02;;;168.23;;
42296;SDS011;28985;47.456;19.016;2022-08-04T10:39:05;170.18;;;163.52;;
42296;SDS011;28985;47.456;19.016;2022-08-04T10:41:58;168.95;;;162.40;;
42296;SDS011;28985;47.456;19.016;2022-08-04T10:47:15;136.35;;;131.25;;
42296;SDS011;28985;47.456;19.016;2022-08-04T10:49:45;138.90;;;133.68;;
42296;SDS011;28985;47.456;19.016;2022-08-04T11:01:14;145.13;;;139.65;;
42296;SDS011;28985;47.456;19.016;2022-08-04T11:07:00;168.65;;;162.20;;
42296;SDS011;28985;47.456;19.016;2022-08-04T11:09:27;175.35;;;168.50;;
42296;SDS011;28985;47.456;19.016;2022-08-04T11:12:01;101.35;;;97.45;;
42296;SDS011;28985;47.456;19.016;2022-08-04T11:14:34;188.43;;;181.27;;
42296;SDS011;28985;47.456;19.016;2022-08-04T11:17:05;105.53;;;101.53;;
42296;SDS011;28985;47.456;19.016;2022-08-04T11:24:52;104.93;;;100.93;;
42296;SDS011;28985;47.456;19.016;2022-08-04T11:27:31;96.65;;;92.85;;
42296;SDS011;28985;47.456;19.016;2022-08-04T11:30:06;93.53;;;89.97;;
42296;SDS011;28985;47.456;19.016;2022-08-04T11:35:37;84.43;;;81.07;;
42296;SDS011;28985;47.456;19.016;2022-08-04T11:38:58;81.35;;;78.28;;
42296;SDS011;28985;47.456;19.016;2022-08-04T11:41:11;53.33;;;51.30;;
42296;SDS011;28985;47.456;19.016;2022-08-04T11:43:44;45.50;;;43.72;;
42296;SDS011;28985;47.456;19.016;2022-08-04T11:46:39;49.47;;;47.45;;
42296;SDS011;28985;47.456;19.016;2022-08-04T11:49:11;48.05;;;46.30;;
42296;SDS011;28985;47.456;19.016;2022-08-04T11:51:41;52.45;;;50.35;;
42296;SDS011;28985;47.456;19.016;2022-08-04T11:54:09;60.03;;;57.72;;
42296;SDS011;28985;47.456;19.016;2022-08-04T11:56:37;57.22;;;54.95;;
42296;SDS011;28985;47.456;19.016;2022-08-04T11:59:05;58.00;;;55.60;;
42296;SDS011;28985;47.456;19.016;2022-08-04T12:04:13;48.20;;;46.38;;
42296;SDS011;28985;47.456;19.016;2022-08-04T12:16:00;55.63;;;53.55;;
42296;SDS011;28985;47.456;19.016;2022-08-04T12:18:40;45.95;;;44.15;;
42296;SDS011;28985;47.456;19.016;2022-08-04T12:21:22;43.95;;;42.20;;
42296;SDS011;28985;47.456;19.016;2022-08-04T12:24:26;49.47;;;47.47;;
42296;SDS011;28985;47.456;19.016;2022-08-04T12:27:03;49.33;;;47.38;;
42296;SDS011;28985;47.456;19.016;2022-08-04T12:29:39;50.72;;;47.83;;
42296;SDS011;28985;47.456;19.016;2022-08-04T12:32:25;47.72;;;45.78;;
42296;SDS011;28985;47.456;19.016;2022-08-04T12:38:02;48.20;;;46.03;;
42296;SDS011;28985;47.456;19.016;2022-08-04T12:40:41;45.45;;;43.67;;
42296;SDS011;28985;47.456;19.016;2022-08-04T12:43:14;47.03;;;45.20;;
42296;SDS011;28985;47.456;19.016;2022-08-04T12:48:15;142.63;;;105.18;;
42296;SDS011;28985;47.456;19.016;2022-08-04T12:50:47;86.95;;;63.15;;
42296;SDS011;28985;47.456;19.016;2022-08-04T12:53:16;45.90;;;44.05;;
42296;SDS011;28985;47.456;19.016;2022-08-04T12:55:57;39.63;;;37.92;;
42296;SDS011;28985;47.456;19.016;2022-08-04T12:58:27;37.03;;;35.53;;
42296;SDS011;28985;47.456;19.016;2022-08-04T13:01:12;37.75;;;36.35;;
42296;SDS011;28985;47.456;19.016;2022-08-04T13:04:20;36.30;;;34.92;;
42296;SDS011;28985;47.456;19.016;2022-08-04T13:07:02;33.50;;;32.20;;
42296;SDS011;28985;47.456;19.016;2022-08-04T13:09:36;38.08;;;36.47;;
42296;SDS011;28985;47.456;19.016;2022-08-04T13:12:04;46.63;;;44.22;;
42296;SDS011;28985;47.456;19.016;2022-08-04T13:14:39;36.63;;;35.17;;
42296;SDS011;28985;47.456;19.016;2022-08-04T13:17:10;33.65;;;32.30;;
42296;SDS011;28985;47.456;19.016;2022-08-04T13:19:37;32.60;;;31.40;;
42296;SDS011;28985;47.456;19.016;2022-08-04T13:22:07;30.70;;;29.60;;
42296;SDS011;28985;47.456;19.016;2022-08-04T13:24:34;28.60;;;27.40;;
42296;SDS011;28985;47.456;19.016;2022-08-04T13:27:23;34.20;;;32.60;;
42296;SDS011;28985;47.456;19.016;2022-08-04T13:29:51;29.98;;;28.83;;
42296;SDS011;28985;47.456;19.016;2022-08-04T13:32:28;31.20;;;29.98;;
42296;SDS011;28985;47.456;19.016;2022-08-04T13:34:56;31.40;;;30.10;;
42296;SDS011;28985;47.456;19.016;2022-08-04T13:37:30;25.77;;;24.80;;
42296;SDS011;28985;47.456;19.016;2022-08-04T13:40:04;24.73;;;23.67;;
42296;SDS011;28985;47.456;19.016;2022-08-04T13:42:35;20.20;;;19.40;;
42296;SDS011;28985;47.456;19.016;2022-08-04T13:45:05;19.27;;;18.50;;
42296;SDS011;28985;47.456;19.016;2022-08-04T13:47:34;19.63;;;18.33;;
42296;SDS011;28985;47.456;19.016;2022-08-04T13:52:39;19.95;;;18.90;;
42296;SDS011;28985;47.456;19.016;2022-08-04T13:55:16;18.65;;;17.80;;
42296;SDS011;28985;47.456;19.016;2022-08-04T13:57:46;19.35;;;18.60;;
42296;SDS011;28985;47.456;19.016;2022-08-04T14:00:17;19.23;;;18.33;;
42296;SDS011;28985;47.456;19.016;2022-08-04T14:03:00;20.95;;;19.50;;
42296;SDS011;28985;47.456;19.016;2022-08-04T14:08:55;19.58;;;18.75;;
42296;SDS011;28985;47.456;19.016;2022-08-04T14:11:37;19.63;;;18.90;;
42296;SDS011;28985;47.456;19.016;2022-08-04T14:14:26;22.10;;;21.20;;
42296;SDS011;28985;47.456;19.016;2022-08-04T14:22:34;21.02;;;20.23;;
42296;SDS011;28985;47.456;19.016;2022-08-04T14:25:12;21.30;;;20.50;;
42296;SDS011;28985;47.456;19.016;2022-08-04T14:27:53;21.23;;;20.42;;
42296;SDS011;28985;47.456;19.016;2022-08-04T14:30:34;20.90;;;20.00;;
42296;SDS011;28985;47.456;19.016;2022-08-04T14:33:03;20.60;;;19.80;;
42296;SDS011;28985;47.456;19.016;2022-08-04T14:35:58;20.95;;;20.15;;
42296;SDS011;28985;47.456;19.016;2022-08-04T14:41:27;20.80;;;19.92;;
42296;SDS011;28985;47.456;19.016;2022-08-04T14:43:57;20.02;;;19.10;;
42296;SDS011;28985;47.456;19.016;2022-08-04T14:46:27;19.73;;;18.95;;
42296;SDS011;28985;47.456;19.016;2022-08-04T14:49:06;18.35;;;17.65;;
42296;SDS011;28985;47.456;19.016;2022-08-04T14:51:36;17.35;;;16.70;;
42296;SDS011;28985;47.456;19.016;2022-08-04T14:54:25;17.27;;;16.67;;
42296;SDS011;28985;47.456;19.016;2022-08-04T14:57:02;16.75;;;16.08;;
42296;SDS011;28985;47.456;19.016;2022-08-04T14:59:41;16.52;;;15.93;;
42296;SDS011;28985;47.456;19.016;2022-08-04T15:02:28;17.20;;;16.52;;
42296;SDS011;28985;47.456;19.016;2022-08-04T15:04:55;17.42;;;16.63;;
42296;SDS011;28985;47.456;19.016;2022-08-04T15:07:22;18.17;;;17.38;;
42296;SDS011;28985;47.456;19.016;2022-08-04T15:09:51;17.80;;;16.90;;
42296;SDS011;28985;47.456;19.016;2022-08-04T15:12:19;17.15;;;16.45;;
42296;SDS011;28985;47.456;19.016;2022-08-04T15:14:46;17.13;;;16.38;;
42296;SDS011;28985;47.456;19.016;2022-08-04T15:17:13;17.23;;;16.52;;
42296;SDS011;28985;47.456;19.016;2022-08-04T15:19:55;17.77;;;16.88;;
42296;SDS011;28985;47.456;19.016;2022-08-04T15:22:22;19.38;;;18.50;;
42296;SDS011;28985;47.456;19.016;2022-08-04T15:24:49;18.30;;;17.25;;
42296;SDS011;28985;47.456;19.016;2022-08-04T15:27:21;16.73;;;16.13;;
42296;SDS011;28985;47.456;19.016;2022-08-04T15:29:51;18.15;;;17.45;;
42296;SDS011;28985;47.456;19.016;2022-08-04T15:32:28;17.25;;;16.58;;
42296;SDS011;28985;47.456;19.016;2022-08-04T15:35:39;17.48;;;16.77;;
42296;SDS011;28985;47.456;19.016;2022-08-04T15:38:14;18.08;;;17.17;;
42296;SDS011;28985;47.456;19.016;2022-08-04T15:41:02;17.20;;;16.55;;
42296;SDS011;28985;47.456;19.016;2022-08-04T15:46:05;16.30;;;15.38;;
42296;SDS011;28985;47.456;19.016;2022-08-04T15:48:52;18.60;;;17.70;;
42296;SDS011;28985;47.456;19.016;2022-08-04T15:51:24;16.38;;;15.68;;
42296;SDS011;28985;47.456;19.016;2022-08-04T15:59:00;17.88;;;16.98;;
42296;SDS011;28985;47.456;19.016;2022-08-04T16:01:26;17.23;;;16.25;;
42296;SDS011;28985;47.456;19.016;2022-08-04T16:03:53;17.80;;;16.58;;
42296;SDS011;28985;47.456;19.016;2022-08-04T16:19:10;18.17;;;17.48;;
42296;SDS011;28985;47.456;19.016;2022-08-04T16:22:01;17.02;;;16.30;;
42296;SDS011;28985;47.456;19.016;2022-08-04T16:24:29;16.73;;;15.88;;
42296;SDS011;28985;47.456;19.016;2022-08-04T16:27:02;17.25;;;16.48;;
42296;SDS011;28985;47.456;19.016;2022-08-04T16:29:45;17.00;;;16.20;;
42296;SDS011;28985;47.456;19.016;2022-08-04T16:32:17;18.20;;;17.20;;
42296;SDS011;28985;47.456;19.016;2022-08-04T16:37:34;18.48;;;17.67;;
42296;SDS011;28985;47.456;19.016;2022-08-04T16:43:14;19.52;;;18.63;;
42296;SDS011;28985;47.456;19.016;2022-08-04T16:45:43;21.90;;;21.00;;
42296;SDS011;28985;47.456;19.016;2022-08-04T16:48:12;21.35;;;20.45;;
42296;SDS011;28985;47.456;19.016;2022-08-04T16:50:53;22.17;;;21.17;;
42296;SDS011;28985;47.456;19.016;2022-08-04T16:53:32;22.58;;;21.67;;
42296;SDS011;28985;47.456;19.016;2022-08-04T16:56:26;22.38;;;21.38;;
42296;SDS011;28985;47.456;19.016;2022-08-04T16:58:54;21.75;;;20.95;;
42296;SDS011;28985;47.456;19.016;2022-08-04T17:01:21;20.95;;;19.90;;
42296;SDS011;28985;47.456;19.016;2022-08-04T17:03:59;21.45;;;20.55;;
42296;SDS011;28985;47.456;19.016;2022-08-04T17:06:37;21.83;;;20.80;;
42296;SDS011;28985;47.456;19.016;2022-08-04T17:09:08;22.00;;;20.98;;
42296;SDS011;28985;47.456;19.016;2022-08-04T17:11:36;22.90;;;21.90;;
42296;SDS011;28985;47.456;19.016;2022-08-04T17:14:03;23.75;;;22.67;;
42296;SDS011;28985;47.456;19.016;2022-08-04T17:16:32;21.42;;;20.45;;
42296;SDS011;28985;47.456;19.016;2022-08-04T17:19:04;21.42;;;20.63;;
42296;SDS011;28985;47.456;19.016;2022-08-04T17:21:50;21.40;;;20.48;;
42296;SDS011;28985;47.456;19.016;2022-08-04T17:24:17;23.67;;;22.67;;
42296;SDS011;28985;47.456;19.016;2022-08-04T17:26:45;26.90;;;25.83;;
42296;SDS011;28985;47.456;19.016;2022-08-04T17:29:22;24.45;;;23.30;;
42296;SDS011;28985;47.456;19.016;2022-08-04T17:32:16;23.05;;;21.95;;
42296;SDS011;28985;47.456;19.016;2022-08-04T17:34:50;26.60;;;25.50;;
42296;SDS011;28985;47.456;19.016;2022-08-04T17:37:20;39.03;;;37.53;;
42296;SDS011;28985;47.456;19.016;2022-08-04T17:40:11;37.80;;;36.30;;
42296;SDS011;28985;47.456;19.016;2022-08-04T17:43:01;47.05;;;45.20;;
42296;SDS011;28985;47.456;19.016;2022-08-04T17:46:12;50.80;;;48.80;;
42296;SDS011;28985;47.456;19.016;2022-08-04T17:49:04;67.07;;;64.47;;
42296;SDS011;28985;47.456;19.016;2022-08-04T17:51:35;63.17;;;60.63;;
42296;SDS011;28985;47.456;19.016;2022-08-04T17:54:33;97.93;;;94.13;;
42296;SDS011;28985;47.456;19.016;2022-08-04T17:57:17;68.88;;;66.18;;
42296;SDS011;28985;47.456;19.016;2022-08-04T17:59:46;81.57;;;78.43;;
42296;SDS011;28985;47.456;19.016;2022-08-04T18:02:37;85.65;;;81.82;;
42296;SDS011;28985;47.456;19.016;2022-08-04T18:05:04;102.38;;;96.55;;
42296;SDS011;28985;47.456;19.016;2022-08-04T18:07:40;109.00;;;101.90;;
42296;SDS011;28985;47.456;19.016;2022-08-04T18:10:41;111.15;;;105.60;;
42296;SDS011;28985;47.456;19.016;2022-08-04T18:13:24;90.90;;;86.00;;
42296;SDS011;28985;47.456;19.016;2022-08-04T18:15:59;107.25;;;101.88;;
42296;SDS011;28985;47.456;19.016;2022-08-04T18:18:28;114.25;;;108.22;;
42296;SDS011;28985;47.456;19.016;2022-08-04T18:20:55;92.38;;;88.00;;
42296;SDS011;28985;47.456;19.016;2022-08-04T18:25:58;126.10;;;120.40;;
42296;SDS011;28985;47.456;19.016;2022-08-04T18:28:27;136.20;;;130.10;;
42296;SDS011;28985;47.456;19.016;2022-08-04T18:30:59;167.50;;;160.80;;
42296;SDS011;28985;47.456;19.016;2022-08-04T18:33:25;242.27;;;232.25;;
42296;SDS011;28985;47.456;19.016;2022-08-04T18:36:07;247.07;;;237.38;;
42296;SDS011;28985;47.456;19.016;2022-08-04T18:38:55;347.75;;;333.52;;
42296;SDS011;28985;47.456;19.016;2022-08-04T18:41:24;323.92;;;310.95;;
42296;SDS011;28985;47.456;19.016;2022-08-04T18:43:53;317.48;;;304.60;;
42296;SDS011;28985;47.456;19.016;2022-08-04T18:46:22;340.27;;;326.23;;
42296;SDS011;28985;47.456;19.016;2022-08-04T18:48:52;331.38;;;317.75;;
42296;SDS011;28985;47.456;19.016;2022-08-04T18:51:21;376.38;;;361.17;;
42296;SDS011;28985;47.456;19.016;2022-08-04T18:53:56;326.45;;;313.25;;
42296;SDS011;28985;47.456;19.016;2022-08-04T18:56:25;320.63;;;307.92;;
42296;SDS011;28985;47.456;19.016;2022-08-04T18:59:01;324.10;;;311.23;;
42296;SDS011;28985;47.456;19.016;2022-08-04T19:01:36;354.48;;;340.13;;
42296;SDS011;28985;47.456;19.016;2022-08-04T19:04:22;310.55;;;298.25;;
42296;SDS011;28985;47.456;19.016;2022-08-04T19:07:00;304.83;;;292.35;;
42296;SDS011;28985;47.456;19.016;2022-08-04T19:09:47;298.13;;;286.17;;
42296;SDS011;28985;47.456;19.016;2022-08-04T19:12:18;277.75;;;266.70;;
42296;SDS011;28985;47.456;19.016;2022-08-04T19:14:53;293.15;;;281.20;;
42296;SDS011;28985;47.456;19.016;2022-08-04T19:17:36;350.73;;;336.57;;
42296;SDS011;28985;47.456;19.016;2022-08-04T19:20:22;328.33;;;315.40;;
42296;SDS011;28985;47.456;19.016;2022-08-04T19:22:51;333.08;;;319.60;;
42296;SDS011;28985;47.456;19.016;2022-08-04T19:25:39;316.58;;;303.70;;
42296;SDS011;28985;47.456;19.016;2022-08-04T19:28:26;382.58;;;366.40;;
42296;SDS011;28985;47.456;19.016;2022-08-04T19:30:55;420.10;;;402.50;;
42296;SDS011;28985;47.456;19.016;2022-08-04T19:33:22;372.67;;;357.38;;
42296;SDS011;28985;47.456;19.016;2022-08-04T19:35:50;371.30;;;356.20;;
42296;SDS011;28985;47.456;19.016;2022-08-04T19:38:17;348.30;;;334.50;;
42296;SDS011;28985;47.456;19.016;2022-08-04T19:40:46;378.20;;;362.80;;
42296;SDS011;28985;47.456;19.016;2022-08-04T19:43:18;394.30;;;378.20;;